sensor_id;sensor_type;location;lat;lon;timestamp;pressure;altitude;pressure_sealevel;temperature;humidity
56334;BME280;42240;53.626;55.886;2023-12-20T00:00:09;77169.84;;;-145.10;100.00
56334;BME280;42240;53.626;55.886;2023-12-20T00:01:45;77165.88;;;-145.10;100.00
56334;BME280;42240;53.626;55.886;2023-12-20T00:03:22;77150.06;;;-145.10;100.00
56334;BME280;42240;53.626;55.886;2023-12-20T00:04:56;77173.78;;;-145.10;100.00
56334;BME280;42240;53.626;55.886;2023-12-20T00:06:30;77154.00;;;-145.10;100.00
56334;BME280;42240;53.626;55.886;2023-12-20T00:08:04;77157.97;;;-145.10;100.00
56334;BME280;42240;53.626;55.886;2023-12-20T00:09:38;77161.94;;;-145.10;100.00
56334;BME280;42240;53.626;55.886;2023-12-20T00:11:12;77134.25;;;-145.10;100.00
56334;BME280;42240;53.626;55.886;2023-12-20T00:12:45;77165.88;;;-145.10;100.00
56334;BME280;42240;53.626;55.886;2023-12-20T00:14:21;77146.09;;;-145.10;100.00
56334;BME280;42240;53.626;55.886;2023-12-20T00:15:54;77156.00;;;-145.10;100.00
56334;BME280;42240;53.626;55.886;2023-12-20T00:17:27;77138.19;;;-145.10;100.00
56334;BME280;42240;53.626;55.886;2023-12-20T00:19:01;77146.09;;;-145.10;100.00
56334;BME280;42240;53.626;55.886;2023-12-20T00:20:37;77126.31;;;-145.10;100.00
56334;BME280;42240;53.626;55.886;2023-12-20T00:22:11;77148.09;;;-145.10;100.00
56334;BME280;42240;53.626;55.886;2023-12-20T00:23:44;77150.06;;;-145.10;100.00
56334;BME280;42240;53.626;55.886;2023-12-20T00:25:17;77150.06;;;-145.10;100.00
56334;BME280;42240;53.626;55.886;2023-12-20T00:26:51;77146.09;;;-145.10;100.00
56334;BME280;42240;53.626;55.886;2023-12-20T00:28:25;77161.94;;;-145.10;100.00
56334;BME280;42240;53.626;55.886;2023-12-20T00:29:57;77142.16;;;-145.10;100.00
56334;BME280;42240;53.626;55.886;2023-12-20T00:31:30;77157.97;;;-145.10;100.00
56334;BME280;42240;53.626;55.886;2023-12-20T00:33:04;77150.06;;;-145.10;100.00
56334;BME280;42240;53.626;55.886;2023-12-20T00:34:37;77156.00;;;-145.10;100.00
56334;BME280;42240;53.626;55.886;2023-12-20T00:36:10;77146.09;;;-145.10;100.00
56334;BME280;42240;53.626;55.886;2023-12-20T00:37:43;77154.00;;;-145.10;100.00
56334;BME280;42240;53.626;55.886;2023-12-20T00:39:17;77118.41;;;-145.10;100.00
56334;BME280;42240;53.626;55.886;2023-12-20T00:40:49;77128.31;;;-145.10;100.00
56334;BME280;42240;53.626;55.886;2023-12-20T00:42:25;77148.09;;;-145.10;100.00
56334;BME280;42240;53.626;55.886;2023-12-20T00:43:59;77130.28;;;-145.10;100.00
56334;BME280;42240;53.626;55.886;2023-12-20T00:45:32;77120.41;;;-145.10;100.00
56334;BME280;42240;53.626;55.886;2023-12-20T00:47:05;77126.31;;;-145.10;100.00
56334;BME280;42240;53.626;55.886;2023-12-20T00:48:38;77165.88;;;-145.10;100.00
56334;BME280;42240;53.626;55.886;2023-12-20T00:50:15;77126.31;;;-145.10;100.00
56334;BME280;42240;53.626;55.886;2023-12-20T00:51:48;77130.28;;;-145.10;100.00
56334;BME280;42240;53.626;55.886;2023-12-20T00:53:23;77122.38;;;-145.10;100.00
56334;BME280;42240;53.626;55.886;2023-12-20T00:54:57;77154.00;;;-145.10;100.00
56334;BME280;42240;53.626;55.886;2023-12-20T00:56:30;77108.53;;;-145.10;100.00
56334;BME280;42240;53.626;55.886;2023-12-20T00:58:04;77098.63;;;-145.10;100.00
56334;BME280;42240;53.626;55.886;2023-12-20T00:59:37;77106.56;;;-145.10;100.00
56334;BME280;42240;53.626;55.886;2023-12-20T01:01:11;77094.69;;;-145.10;100.00
56334;BME280;42240;53.626;55.886;2023-12-20T01:02:44;77098.63;;;-145.10;100.00
56334;BME280;42240;53.626;55.886;2023-12-20T01:04:20;77086.78;;;-145.10;100.00
56334;BME280;42240;53.626;55.886;2023-12-20T01:05:54;77074.91;;;-145.10;100.00
56334;BME280;42240;53.626;55.886;2023-12-20T01:07:27;77086.78;;;-145.10;100.00
56334;BME280;42240;53.626;55.886;2023-12-20T01:09:01;77088.75;;;-145.10;100.00
56334;BME280;42240;53.626;55.886;2023-12-20T01:10:34;77074.91;;;-145.10;100.00
56334;BME280;42240;53.626;55.886;2023-12-20T01:12:07;77130.28;;;-145.10;100.00
56334;BME280;42240;53.626;55.886;2023-12-20T01:13:41;77086.78;;;-145.10;100.00
56334;BME280;42240;53.626;55.886;2023-12-20T01:15:13;77049.19;;;-145.10;100.00
56334;BME280;42240;53.626;55.886;2023-12-20T01:16:47;77065.03;;;-145.10;100.00
56334;BME280;42240;53.626;55.886;2023-12-20T01:18:21;77047.22;;;-145.10;100.00
56334;BME280;42240;53.626;55.886;2023-12-20T01:19:54;77053.16;;;-145.10;100.00
56334;BME280;42240;53.626;55.886;2023-12-20T01:21:30;77063.03;;;-145.10;100.00
56334;BME280;42240;53.626;55.886;2023-12-20T01:23:06;77033.38;;;-145.10;100.00
56334;BME280;42240;53.626;55.886;2023-12-20T01:24:40;77078.88;;;-145.10;100.00
56334;BME280;42240;53.626;55.886;2023-12-20T01:26:14;77086.78;;;-145.10;100.00
56334;BME280;42240;53.626;55.886;2023-12-20T01:27:48;77104.56;;;-145.10;100.00
56334;BME280;42240;53.626;55.886;2023-12-20T01:29:21;77067.00;;;-145.10;100.00
56334;BME280;42240;53.626;55.886;2023-12-20T01:30:54;77094.69;;;-145.10;100.00
56334;BME280;42240;53.626;55.886;2023-12-20T01:32:28;77057.09;;;-145.10;100.00
56334;BME280;42240;53.626;55.886;2023-12-20T01:34:01;77067.00;;;-145.10;100.00
56334;BME280;42240;53.626;55.886;2023-12-20T01:35:35;77065.03;;;-145.10;100.00
56334;BME280;42240;53.626;55.886;2023-12-20T01:37:08;77043.25;;;-145.10;100.00
56334;BME280;42240;53.626;55.886;2023-12-20T01:38:42;77045.25;;;-145.10;100.00
56334;BME280;42240;53.626;55.886;2023-12-20T01:40:16;77059.09;;;-145.10;100.00
56334;BME280;42240;53.626;55.886;2023-12-20T01:41:52;77078.88;;;-145.10;100.00
56334;BME280;42240;53.626;55.886;2023-12-20T01:43:26;77053.16;;;-145.10;100.00
56334;BME280;42240;53.626;55.886;2023-12-20T01:45:03;77067.00;;;-145.10;100.00
56334;BME280;42240;53.626;55.886;2023-12-20T01:46:36;77082.81;;;-145.10;100.00
56334;BME280;42240;53.626;55.886;2023-12-20T01:48:09;77078.88;;;-145.10;100.00
56334;BME280;42240;53.626;55.886;2023-12-20T01:49:43;77043.25;;;-145.10;100.00
56334;BME280;42240;53.626;55.886;2023-12-20T01:51:17;77041.28;;;-145.10;100.00
56334;BME280;42240;53.626;55.886;2023-12-20T01:52:51;77053.16;;;-145.10;100.00
56334;BME280;42240;53.626;55.886;2023-12-20T01:54:25;77059.09;;;-145.10;100.00
56334;BME280;42240;53.626;55.886;2023-12-20T01:55:59;77039.31;;;-145.10;100.00
56334;BME280;42240;53.626;55.886;2023-12-20T01:57:32;77035.34;;;-145.10;100.00
56334;BME280;42240;53.626;55.886;2023-12-20T01:59:06;77047.22;;;-145.10;100.00
56334;BME280;42240;53.626;55.886;2023-12-20T02:00:42;77031.41;;;-145.10;100.00
56334;BME280;42240;53.626;55.886;2023-12-20T02:02:15;77045.25;;;-145.10;100.00
56334;BME280;42240;53.626;55.886;2023-12-20T02:03:49;77061.06;;;-145.10;100.00
56334;BME280;42240;53.626;55.886;2023-12-20T02:05:23;77025.47;;;-145.10;100.00
56334;BME280;42240;53.626;55.886;2023-12-20T02:06:57;77053.16;;;-145.10;100.00
56334;BME280;42240;53.626;55.886;2023-12-20T02:08:35;77029.41;;;-145.10;100.00
56334;BME280;42240;53.626;55.886;2023-12-20T02:10:09;77029.41;;;-145.10;100.00
56334;BME280;42240;53.626;55.886;2023-12-20T02:11:42;77025.47;;;-145.10;100.00
56334;BME280;42240;53.626;55.886;2023-12-20T02:13:16;77027.44;;;-145.10;100.00
56334;BME280;42240;53.626;55.886;2023-12-20T02:14:49;76987.88;;;-145.10;100.00
56334;BME280;42240;53.626;55.886;2023-12-20T02:16:22;76993.81;;;-145.10;100.00
56334;BME280;42240;53.626;55.886;2023-12-20T02:17:56;77027.44;;;-145.10;100.00
56334;BME280;42240;53.626;55.886;2023-12-20T02:19:49;77011.63;;;-145.10;100.00
56334;BME280;42240;53.626;55.886;2023-12-20T02:21:31;76995.81;;;-145.10;100.00
56334;BME280;42240;53.626;55.886;2023-12-20T02:23:05;76993.81;;;-145.10;100.00
56334;BME280;42240;53.626;55.886;2023-12-20T02:24:38;76978.00;;;-145.10;100.00
56334;BME280;42240;53.626;55.886;2023-12-20T02:26:12;77003.72;;;-145.10;100.00
56334;BME280;42240;53.626;55.886;2023-12-20T02:27:46;77017.56;;;-145.10;100.00
56334;BME280;42240;53.626;55.886;2023-12-20T02:29:21;77003.72;;;-145.10;100.00
56334;BME280;42240;53.626;55.886;2023-12-20T02:30:56;76991.84;;;-145.10;100.00
56334;BME280;42240;53.626;55.886;2023-12-20T02:32:29;77007.66;;;-145.10;100.00
56334;BME280;42240;53.626;55.886;2023-12-20T02:34:03;76991.84;;;-145.10;100.00
56334;BME280;42240;53.626;55.886;2023-12-20T02:35:39;76968.13;;;-145.10;100.00
56334;BME280;42240;53.626;55.886;2023-12-20T02:37:12;76987.88;;;-145.10;100.00
56334;BME280;42240;53.626;55.886;2023-12-20T02:38:48;76979.97;;;-145.10;100.00
56334;BME280;42240;53.626;55.886;2023-12-20T02:40:23;76997.78;;;-145.10;100.00
56334;BME280;42240;53.626;55.886;2023-12-20T02:41:59;76983.94;;;-145.10;100.00
56334;BME280;42240;53.626;55.886;2023-12-20T02:43:32;76979.97;;;-145.10;100.00
56334;BME280;42240;53.626;55.886;2023-12-20T02:45:06;76968.13;;;-145.10;100.00
56334;BME280;42240;53.626;55.886;2023-12-20T02:46:39;76987.88;;;-145.10;100.00
56334;BME280;42240;53.626;55.886;2023-12-20T02:48:13;76952.28;;;-145.10;100.00
56334;BME280;42240;53.626;55.886;2023-12-20T02:49:46;76966.13;;;-145.10;100.00
56334;BME280;42240;53.626;55.886;2023-12-20T02:51:20;76958.22;;;-145.10;100.00
56334;BME280;42240;53.626;55.886;2023-12-20T02:52:53;76932.53;;;-145.10;100.00
56334;BME280;42240;53.626;55.886;2023-12-20T02:54:29;76964.16;;;-145.10;100.00
56334;BME280;42240;53.626;55.886;2023-12-20T02:56:02;76944.38;;;-145.10;100.00
56334;BME280;42240;53.626;55.886;2023-12-20T02:57:35;76942.41;;;-145.10;100.00
56334;BME280;42240;53.626;55.886;2023-12-20T02:59:09;76944.38;;;-145.10;100.00
56334;BME280;42240;53.626;55.886;2023-12-20T03:00:42;76958.22;;;-145.10;100.00
56334;BME280;42240;53.626;55.886;2023-12-20T03:02:15;76948.34;;;-145.10;100.00
56334;BME280;42240;53.626;55.886;2023-12-20T03:03:48;76932.53;;;-145.10;100.00
56334;BME280;42240;53.626;55.886;2023-12-20T03:05:20;76916.69;;;-145.10;100.00
56334;BME280;42240;53.626;55.886;2023-12-20T03:06:53;76924.59;;;-145.10;100.00
56334;BME280;42240;53.626;55.886;2023-12-20T03:08:26;76912.75;;;-145.10;100.00
56334;BME280;42240;53.626;55.886;2023-12-20T03:10:03;76916.69;;;-145.10;100.00
56334;BME280;42240;53.626;55.886;2023-12-20T03:11:51;76932.53;;;-145.10;100.00
56334;BME280;42240;53.626;55.886;2023-12-20T03:13:24;76926.59;;;-145.10;100.00
56334;BME280;42240;53.626;55.886;2023-12-20T03:14:56;76908.78;;;-145.10;100.00
56334;BME280;42240;53.626;55.886;2023-12-20T03:16:29;76908.78;;;-145.10;100.00
56334;BME280;42240;53.626;55.886;2023-12-20T03:18:06;76889.00;;;-145.10;100.00
56334;BME280;42240;53.626;55.886;2023-12-20T03:19:39;76904.84;;;-145.10;100.00
56334;BME280;42240;53.626;55.886;2023-12-20T03:21:11;76904.84;;;-145.10;100.00
56334;BME280;42240;53.626;55.886;2023-12-20T03:22:44;76906.81;;;-145.10;100.00
56334;BME280;42240;53.626;55.886;2023-12-20T03:24:16;76900.88;;;-145.10;100.00
56334;BME280;42240;53.626;55.886;2023-12-20T03:25:52;76908.78;;;-145.10;100.00
56334;BME280;42240;53.626;55.886;2023-12-20T03:27:25;76916.69;;;-145.10;100.00
56334;BME280;42240;53.626;55.886;2023-12-20T03:28:57;76904.84;;;-145.10;100.00
56334;BME280;42240;53.626;55.886;2023-12-20T03:30:30;76904.84;;;-145.10;100.00
56334;BME280;42240;53.626;55.886;2023-12-20T03:32:03;76922.63;;;-145.10;100.00
56334;BME280;42240;53.626;55.886;2023-12-20T03:33:36;76926.59;;;-145.10;100.00
56334;BME280;42240;53.626;55.886;2023-12-20T03:35:08;76930.53;;;-145.10;100.00
56334;BME280;42240;53.626;55.886;2023-12-20T03:36:41;76889.00;;;-145.10;100.00
56334;BME280;42240;53.626;55.886;2023-12-20T03:38:14;76885.06;;;-145.10;100.00
56334;BME280;42240;53.626;55.886;2023-12-20T03:39:47;76877.16;;;-145.10;100.00
56334;BME280;42240;53.626;55.886;2023-12-20T03:41:20;76877.16;;;-145.10;100.00
56334;BME280;42240;53.626;55.886;2023-12-20T03:42:55;76892.97;;;-145.10;100.00
56334;BME280;42240;53.626;55.886;2023-12-20T03:44:28;76912.75;;;-145.10;100.00
56334;BME280;42240;53.626;55.886;2023-12-20T03:46:01;76904.84;;;-145.10;100.00
56334;BME280;42240;53.626;55.886;2023-12-20T03:47:36;76900.88;;;-145.10;100.00
56334;BME280;42240;53.626;55.886;2023-12-20T03:49:09;76873.19;;;-145.10;100.00
56334;BME280;42240;53.626;55.886;2023-12-20T03:50:41;76861.34;;;-145.10;100.00
56334;BME280;42240;53.626;55.886;2023-12-20T03:52:14;76865.28;;;-145.10;100.00
56334;BME280;42240;53.626;55.886;2023-12-20T03:53:47;76831.66;;;-145.10;100.00
56334;BME280;42240;53.626;55.886;2023-12-20T03:55:20;76849.47;;;-145.10;100.00
56334;BME280;42240;53.626;55.886;2023-12-20T03:56:53;76843.53;;;-145.10;100.00
56334;BME280;42240;53.626;55.886;2023-12-20T03:58:26;76861.34;;;-145.10;100.00
56334;BME280;42240;53.626;55.886;2023-12-20T04:00:00;76835.63;;;-145.10;100.00
56334;BME280;42240;53.626;55.886;2023-12-20T04:01:43;76849.47;;;-145.10;100.00
56334;BME280;42240;53.626;55.886;2023-12-20T04:03:19;76865.28;;;-145.10;100.00
56334;BME280;42240;53.626;55.886;2023-12-20T04:04:51;76885.06;;;-145.10;100.00
56334;BME280;42240;53.626;55.886;2023-12-20T04:06:25;76889.00;;;-145.10;100.00
56334;BME280;42240;53.626;55.886;2023-12-20T04:07:59;76851.44;;;-145.10;100.00
56334;BME280;42240;53.626;55.886;2023-12-20T04:09:32;76839.56;;;-145.10;100.00
56334;BME280;42240;53.626;55.886;2023-12-20T04:11:05;76853.41;;;-145.10;100.00
56334;BME280;42240;53.626;55.886;2023-12-20T04:12:39;76849.47;;;-145.10;100.00
56334;BME280;42240;53.626;55.886;2023-12-20T04:14:12;76867.25;;;-145.10;100.00
56334;BME280;42240;53.626;55.886;2023-12-20T04:15:45;76849.47;;;-145.10;100.00
56334;BME280;42240;53.626;55.886;2023-12-20T04:17:18;76849.47;;;-145.10;100.00
56334;BME280;42240;53.626;55.886;2023-12-20T04:18:50;76849.47;;;-145.10;100.00
56334;BME280;42240;53.626;55.886;2023-12-20T04:20:24;76845.50;;;-145.10;100.00
56334;BME280;42240;53.626;55.886;2023-12-20T04:21:59;76865.28;;;-145.10;100.00
56334;BME280;42240;53.626;55.886;2023-12-20T04:23:33;76833.66;;;-145.10;100.00
56334;BME280;42240;53.626;55.886;2023-12-20T04:25:06;76827.72;;;-145.10;100.00
56334;BME280;42240;53.626;55.886;2023-12-20T04:26:39;76845.50;;;-145.10;100.00
56334;BME280;42240;53.626;55.886;2023-12-20T04:28:12;76837.59;;;-145.10;100.00
56334;BME280;42240;53.626;55.886;2023-12-20T04:29:45;76837.59;;;-145.10;100.00
56334;BME280;42240;53.626;55.886;2023-12-20T04:31:21;76821.78;;;-145.10;100.00
56334;BME280;42240;53.626;55.886;2023-12-20T04:32:54;76841.56;;;-145.10;100.00
56334;BME280;42240;53.626;55.886;2023-12-20T04:34:28;76849.47;;;-145.10;100.00
56334;BME280;42240;53.626;55.886;2023-12-20T04:36:02;76865.28;;;-145.10;100.00
56334;BME280;42240;53.626;55.886;2023-12-20T04:37:38;76889.00;;;-145.10;100.00
56334;BME280;42240;53.626;55.886;2023-12-20T04:39:12;76849.47;;;-145.10;100.00
56334;BME280;42240;53.626;55.886;2023-12-20T04:40:50;76873.19;;;-145.10;100.00
56334;BME280;42240;53.626;55.886;2023-12-20T04:42:23;76865.28;;;-145.10;100.00
56334;BME280;42240;53.626;55.886;2023-12-20T04:43:56;76861.34;;;-145.10;100.00
56334;BME280;42240;53.626;55.886;2023-12-20T04:45:29;76851.44;;;-145.10;100.00
56334;BME280;42240;53.626;55.886;2023-12-20T04:47:02;76853.41;;;-145.10;100.00
56334;BME280;42240;53.626;55.886;2023-12-20T04:48:38;76869.25;;;-145.10;100.00
56334;BME280;42240;53.626;55.886;2023-12-20T04:50:12;76875.16;;;-145.10;100.00
56334;BME280;42240;53.626;55.886;2023-12-20T04:51:46;76843.53;;;-145.10;100.00
56334;BME280;42240;53.626;55.886;2023-12-20T04:53:19;76847.50;;;-145.10;100.00
56334;BME280;42240;53.626;55.886;2023-12-20T04:54:52;76861.34;;;-145.10;100.00
56334;BME280;42240;53.626;55.886;2023-12-20T04:56:26;76837.59;;;-145.10;100.00
56334;BME280;42240;53.626;55.886;2023-12-20T04:57:59;76845.50;;;-145.10;100.00
56334;BME280;42240;53.626;55.886;2023-12-20T04:59:32;76835.63;;;-145.10;100.00
56334;BME280;42240;53.626;55.886;2023-12-20T05:01:05;76837.59;;;-145.10;100.00
56334;BME280;42240;53.626;55.886;2023-12-20T05:02:39;76837.59;;;-145.10;100.00
56334;BME280;42240;53.626;55.886;2023-12-20T05:04:12;76837.59;;;-145.10;100.00
56334;BME280;42240;53.626;55.886;2023-12-20T05:05:45;76821.78;;;-145.10;100.00
56334;BME280;42240;53.626;55.886;2023-12-20T05:07:18;76847.50;;;-145.10;100.00
56334;BME280;42240;53.626;55.886;2023-12-20T05:08:52;76833.66;;;-145.10;100.00
56334;BME280;42240;53.626;55.886;2023-12-20T05:10:25;76831.66;;;-145.10;100.00
56334;BME280;42240;53.626;55.886;2023-12-20T05:11:59;76829.69;;;-145.10;100.00
56334;BME280;42240;53.626;55.886;2023-12-20T05:13:33;76841.56;;;-145.10;100.00
56334;BME280;42240;53.626;55.886;2023-12-20T05:15:18;76851.44;;;-145.10;100.00
56334;BME280;42240;53.626;55.886;2023-12-20T05:16:52;76833.66;;;-145.10;100.00
56334;BME280;42240;53.626;55.886;2023-12-20T05:18:25;76821.78;;;-145.10;100.00
56334;BME280;42240;53.626;55.886;2023-12-20T05:19:59;76825.72;;;-145.10;100.00
56334;BME280;42240;53.626;55.886;2023-12-20T05:21:33;76815.84;;;-145.10;100.00
56334;BME280;42240;53.626;55.886;2023-12-20T05:23:06;76821.78;;;-145.10;100.00
56334;BME280;42240;53.626;55.886;2023-12-20T05:24:40;76817.81;;;-145.10;100.00
56334;BME280;42240;53.626;55.886;2023-12-20T05:26:13;76798.03;;;-145.10;100.00
56334;BME280;42240;53.626;55.886;2023-12-20T05:27:49;76813.88;;;-145.10;100.00
56334;BME280;42240;53.626;55.886;2023-12-20T05:29:22;76821.78;;;-145.10;100.00
56334;BME280;42240;53.626;55.886;2023-12-20T05:30:56;76825.72;;;-145.10;100.00
56334;BME280;42240;53.626;55.886;2023-12-20T05:32:32;76805.97;;;-145.10;100.00
56334;BME280;42240;53.626;55.886;2023-12-20T05:34:05;76827.72;;;-145.10;100.00
56334;BME280;42240;53.626;55.886;2023-12-20T05:35:38;76849.47;;;-145.10;100.00
56334;BME280;42240;53.626;55.886;2023-12-20T05:37:11;76861.34;;;-145.10;100.00
56334;BME280;42240;53.626;55.886;2023-12-20T05:38:44;76837.59;;;-145.10;100.00
56334;BME280;42240;53.626;55.886;2023-12-20T05:40:17;76855.41;;;-145.10;100.00
56334;BME280;42240;53.626;55.886;2023-12-20T05:41:50;76817.81;;;-145.10;100.00
56334;BME280;42240;53.626;55.886;2023-12-20T05:43:22;76798.03;;;-145.10;100.00
56334;BME280;42240;53.626;55.886;2023-12-20T05:44:55;76794.09;;;-145.10;100.00
56334;BME280;42240;53.626;55.886;2023-12-20T05:46:30;76803.97;;;-145.10;100.00
56334;BME280;42240;53.626;55.886;2023-12-20T05:48:02;76770.38;;;-145.10;100.00
56334;BME280;42240;53.626;55.886;2023-12-20T05:49:36;76780.25;;;-145.10;100.00
56334;BME280;42240;53.626;55.886;2023-12-20T05:51:11;76774.31;;;-145.10;100.00
56334;BME280;42240;53.626;55.886;2023-12-20T05:52:44;76780.25;;;-145.10;100.00
56334;BME280;42240;53.626;55.886;2023-12-20T05:54:16;76750.59;;;-145.10;100.00
56334;BME280;42240;53.626;55.886;2023-12-20T05:55:49;76770.38;;;-145.10;100.00
56334;BME280;42240;53.626;55.886;2023-12-20T05:57:22;76770.38;;;-145.10;100.00
56334;BME280;42240;53.626;55.886;2023-12-20T05:58:55;76782.22;;;-145.10;100.00
56334;BME280;42240;53.626;55.886;2023-12-20T06:00:28;76780.25;;;-145.10;100.00
56334;BME280;42240;53.626;55.886;2023-12-20T06:02:02;76770.38;;;-145.10;100.00
56334;BME280;42240;53.626;55.886;2023-12-20T06:03:35;76794.09;;;-145.10;100.00
56334;BME280;42240;53.626;55.886;2023-12-20T06:05:09;76774.31;;;-145.10;100.00
56334;BME280;42240;53.626;55.886;2023-12-20T06:06:43;76792.13;;;-145.10;100.00
56334;BME280;42240;53.626;55.886;2023-12-20T06:08:17;76774.31;;;-145.10;100.00
56334;BME280;42240;53.626;55.886;2023-12-20T06:09:50;76770.38;;;-145.10;100.00
56334;BME280;42240;53.626;55.886;2023-12-20T06:11:23;76792.13;;;-145.10;100.00
56334;BME280;42240;53.626;55.886;2023-12-20T06:12:56;76770.38;;;-145.10;100.00
56334;BME280;42240;53.626;55.886;2023-12-20T06:14:31;76778.28;;;-145.10;100.00
56334;BME280;42240;53.626;55.886;2023-12-20T06:16:05;76784.22;;;-145.10;100.00
56334;BME280;42240;53.626;55.886;2023-12-20T06:17:39;76778.28;;;-145.10;100.00
56334;BME280;42240;53.626;55.886;2023-12-20T06:19:14;76774.31;;;-145.10;100.00
56334;BME280;42240;53.626;55.886;2023-12-20T06:20:48;76778.28;;;-145.10;100.00
56334;BME280;42240;53.626;55.886;2023-12-20T06:22:21;76752.56;;;-145.10;100.00
56334;BME280;42240;53.626;55.886;2023-12-20T06:23:55;76742.69;;;-145.10;100.00
56334;BME280;42240;53.626;55.886;2023-12-20T06:25:28;76766.41;;;-145.10;100.00
56334;BME280;42240;53.626;55.886;2023-12-20T06:27:01;76754.53;;;-145.10;100.00
56334;BME280;42240;53.626;55.886;2023-12-20T06:28:35;76766.41;;;-145.10;100.00
56334;BME280;42240;53.626;55.886;2023-12-20T06:30:10;76740.69;;;-145.10;100.00
56334;BME280;42240;53.626;55.886;2023-12-20T06:31:44;76748.59;;;-145.10;100.00
56334;BME280;42240;53.626;55.886;2023-12-20T06:33:17;76746.63;;;-145.10;100.00
56334;BME280;42240;53.626;55.886;2023-12-20T06:34:51;76748.59;;;-145.10;100.00
56334;BME280;42240;53.626;55.886;2023-12-20T06:36:24;76758.50;;;-145.10;100.00
56334;BME280;42240;53.626;55.886;2023-12-20T06:37:58;76754.53;;;-145.10;100.00
56334;BME280;42240;53.626;55.886;2023-12-20T06:39:30;76750.59;;;-145.10;100.00
56334;BME280;42240;53.626;55.886;2023-12-20T06:41:04;76744.66;;;-145.10;100.00
56334;BME280;42240;53.626;55.886;2023-12-20T06:42:38;76736.75;;;-145.10;100.00
56334;BME280;42240;53.626;55.886;2023-12-20T06:44:25;76732.78;;;-145.10;100.00
56334;BME280;42240;53.626;55.886;2023-12-20T06:46:00;76748.59;;;-145.10;100.00
56334;BME280;42240;53.626;55.886;2023-12-20T06:47:33;76730.81;;;-145.10;100.00
56334;BME280;42240;53.626;55.886;2023-12-20T06:49:06;76734.78;;;-145.10;100.00
56334;BME280;42240;53.626;55.886;2023-12-20T06:50:40;76707.09;;;-145.10;100.00
56334;BME280;42240;53.626;55.886;2023-12-20T06:52:13;76715.00;;;-145.10;100.00
56334;BME280;42240;53.626;55.886;2023-12-20T06:53:46;76673.47;;;-145.10;100.00
56334;BME280;42240;53.626;55.886;2023-12-20T06:55:21;76669.50;;;-145.10;100.00
56334;BME280;42240;53.626;55.886;2023-12-20T06:56:55;76675.44;;;-145.10;100.00
56334;BME280;42240;53.626;55.886;2023-12-20T06:58:28;76677.41;;;-145.10;100.00
56334;BME280;42240;53.626;55.886;2023-12-20T07:00:01;76693.25;;;-145.10;100.00
56334;BME280;42240;53.626;55.886;2023-12-20T07:01:35;76687.31;;;-145.10;100.00
56334;BME280;42240;53.626;55.886;2023-12-20T07:03:09;76657.66;;;-145.10;100.00
56334;BME280;42240;53.626;55.886;2023-12-20T07:04:42;76695.22;;;-145.10;100.00
56334;BME280;42240;53.626;55.886;2023-12-20T07:06:15;76683.34;;;-145.10;100.00
56334;BME280;42240;53.626;55.886;2023-12-20T07:07:49;76667.53;;;-145.10;100.00
56334;BME280;42240;53.626;55.886;2023-12-20T07:09:23;76677.41;;;-145.10;100.00
56334;BME280;42240;53.626;55.886;2023-12-20T07:10:56;76703.13;;;-145.10;100.00
56334;BME280;42240;53.626;55.886;2023-12-20T07:12:29;76691.25;;;-145.10;100.00
56334;BME280;42240;53.626;55.886;2023-12-20T07:14:03;76691.25;;;-145.10;100.00
56334;BME280;42240;53.626;55.886;2023-12-20T07:15:36;76681.38;;;-145.10;100.00
56334;BME280;42240;53.626;55.886;2023-12-20T07:17:10;76671.50;;;-145.10;100.00
56334;BME280;42240;53.626;55.886;2023-12-20T07:18:44;76695.22;;;-145.10;100.00
56334;BME280;42240;53.626;55.886;2023-12-20T07:20:17;76673.47;;;-145.10;100.00
56334;BME280;42240;53.626;55.886;2023-12-20T07:21:50;76691.25;;;-145.10;100.00
56334;BME280;42240;53.626;55.886;2023-12-20T07:23:25;76687.31;;;-145.10;100.00
56334;BME280;42240;53.626;55.886;2023-12-20T07:24:59;76673.47;;;-145.10;100.00
56334;BME280;42240;53.626;55.886;2023-12-20T07:26:33;76671.50;;;-145.10;100.00
56334;BME280;42240;53.626;55.886;2023-12-20T07:28:07;76679.41;;;-145.10;100.00
56334;BME280;42240;53.626;55.886;2023-12-20T07:29:40;76661.59;;;-145.10;100.00
56334;BME280;42240;53.626;55.886;2023-12-20T07:31:15;76653.69;;;-145.10;100.00
56334;BME280;42240;53.626;55.886;2023-12-20T07:32:48;76647.75;;;-145.10;100.00
56334;BME280;42240;53.626;55.886;2023-12-20T07:34:22;76637.88;;;-145.10;100.00
56334;BME280;42240;53.626;55.886;2023-12-20T07:35:55;76608.22;;;-145.10;100.00
56334;BME280;42240;53.626;55.886;2023-12-20T07:37:28;76647.75;;;-145.10;100.00
56334;BME280;42240;53.626;55.886;2023-12-20T07:39:01;76612.16;;;-145.10;100.00
56334;BME280;42240;53.626;55.886;2023-12-20T07:40:37;76624.03;;;-145.10;100.00
56334;BME280;42240;53.626;55.886;2023-12-20T07:42:11;76600.31;;;-145.10;100.00
56334;BME280;42240;53.626;55.886;2023-12-20T07:43:44;76600.31;;;-145.10;100.00
56334;BME280;42240;53.626;55.886;2023-12-20T07:45:17;76618.09;;;-145.10;100.00
56334;BME280;42240;53.626;55.886;2023-12-20T07:46:53;76604.25;;;-145.10;100.00
56334;BME280;42240;53.626;55.886;2023-12-20T07:48:26;76602.28;;;-145.10;100.00
56334;BME280;42240;53.626;55.886;2023-12-20T07:49:59;76602.28;;;-145.10;100.00
56334;BME280;42240;53.626;55.886;2023-12-20T07:51:33;76604.25;;;-145.10;100.00